createdAt,value
2023-05-01T00:00:50.549Z,34.34
2023-05-01T00:01:50.562Z,34.30
2023-05-01T00:02:50.635Z,34.34
2023-05-01T00:03:50.608Z,34.34
2023-05-01T00:04:50.590Z,34.37
2023-05-01T00:05:50.502Z,34.34
2023-05-01T00:06:50.669Z,34.33
2023-05-01T00:07:50.493Z,34.33
2023-05-01T00:08:50.484Z,34.34
2023-05-01T00:09:50.501Z,34.39
2023-05-01T00:10:50.512Z,34.37
2023-05-01T00:11:50.484Z,34.40
2023-05-01T00:12:50.493Z,34.38
2023-05-01T00:13:50.480Z,34.37
2023-05-01T00:14:50.476Z,34.42
2023-05-01T00:15:50.481Z,34.39
2023-05-01T00:16:50.568Z,34.36
2023-05-01T00:17:50.506Z,34.41
2023-05-01T00:18:50.494Z,34.38
2023-05-01T00:19:50.475Z,34.36
2023-05-01T00:20:50.472Z,34.36
2023-05-01T00:21:50.468Z,34.33
2023-05-01T00:22:50.469Z,34.42
2023-05-01T00:23:50.463Z,34.38
2023-05-01T00:24:50.461Z,34.36
2023-05-01T00:25:50.483Z,34.36
2023-05-01T00:26:50.482Z,34.38
2023-05-01T00:27:50.454Z,34.38
2023-05-01T00:28:50.454Z,34.38
2023-05-01T00:29:50.449Z,34.34
2023-05-01T00:30:50.454Z,34.34
2023-05-01T00:31:50.517Z,34.34
2023-05-01T00:32:50.505Z,34.35
2023-05-01T00:33:50.435Z,34.38
2023-05-01T00:34:50.427Z,34.39
2023-05-01T00:35:50.892Z,34.35
2023-05-01T00:36:50.417Z,34.38
2023-05-01T00:37:50.410Z,34.38
2023-05-01T00:38:50.400Z,34.31
2023-05-01T00:39:50.402Z,34.34
2023-05-01T00:40:50.391Z,34.32
2023-05-01T00:41:50.390Z,34.36
2023-05-01T00:42:50.413Z,34.35
2023-05-01T00:43:50.391Z,34.33
2023-05-01T00:44:50.381Z,34.38
2023-05-01T00:45:50.390Z,34.36
2023-05-01T00:46:50.384Z,34.39
2023-05-01T00:47:50.418Z,34.35
2023-05-01T00:48:50.400Z,34.35
2023-05-01T00:49:50.386Z,34.34
2023-05-01T00:50:50.400Z,34.34
2023-05-01T00:51:50.374Z,34.32
2023-05-01T00:52:50.378Z,34.31
2023-05-01T00:53:50.369Z,34.35
2023-05-01T00:54:50.368Z,34.35
2023-05-01T00:55:50.361Z,34.38
2023-05-01T00:56:50.363Z,34.32
2023-05-01T00:57:50.354Z,34.35
2023-05-01T00:58:50.379Z,34.35
2023-05-01T00:59:50.346Z,34.32
2023-05-01T01:00:50.387Z,34.31
2023-05-01T01:01:50.346Z,34.34
2023-05-01T01:02:50.387Z,34.30
2023-05-01T01:03:50.350Z,34.35
2023-05-01T01:04:50.463Z,34.35
2023-05-01T01:05:50.355Z,34.30
2023-05-01T01:06:50.969Z,34.31
2023-05-01T01:07:50.369Z,34.31
2023-05-01T01:08:50.362Z,34.32
2023-05-01T01:09:50.360Z,34.36
2023-05-01T01:10:50.363Z,34.35
2023-05-01T01:11:50.366Z,34.32
2023-05-01T01:12:50.359Z,34.31
2023-05-01T01:13:50.367Z,34.32
2023-05-01T01:14:50.497Z,34.31
2023-05-01T01:15:50.363Z,34.32
2023-05-01T01:16:50.367Z,34.32
2023-05-01T01:17:50.385Z,34.34
2023-05-01T01:18:50.369Z,34.26
2023-05-01T01:19:50.364Z,34.30
2023-05-01T01:20:50.370Z,34.32
2023-05-01T01:21:50.362Z,34.31
2023-05-01T01:22:50.363Z,34.34
2023-05-01T01:23:50.373Z,34.32
2023-05-01T01:24:50.361Z,34.29
2023-05-01T01:25:50.355Z,34.30
2023-05-01T01:26:50.354Z,34.29
2023-05-01T01:27:50.353Z,34.27
2023-05-01T01:28:50.345Z,34.30
2023-05-01T01:29:50.350Z,34.32
2023-05-01T01:30:50.408Z,34.30
2023-05-01T01:31:50.335Z,34.27
2023-05-01T01:32:50.368Z,34.30
2023-05-01T01:33:50.347Z,34.27
2023-05-01T01:34:50.346Z,34.27
2023-05-01T01:35:50.343Z,34.31
2023-05-01T01:36:50.360Z,34.28
2023-05-01T01:37:50.341Z,34.25
2023-05-01T01:38:50.338Z,34.27
2023-05-01T01:39:50.341Z,34.27
2023-05-01T01:40:50.354Z,34.27
2023-05-01T01:41:50.351Z,34.28
2023-05-01T01:42:50.344Z,34.32
2023-05-01T01:43:50.345Z,34.28
2023-05-01T01:44:50.340Z,34.31
2023-05-01T01:45:50.366Z,34.26
2023-05-01T01:46:50.375Z,34.28
2023-05-01T01:47:50.389Z,34.30
2023-05-01T01:48:50.366Z,34.28
2023-05-01T01:49:50.341Z,34.27
2023-05-01T01:50:50.363Z,34.32
2023-05-01T01:51:50.350Z,34.27
2023-05-01T01:52:50.362Z,34.28
2023-05-01T01:53:50.402Z,34.31
2023-05-01T01:54:50.373Z,34.32
2023-05-01T01:55:50.355Z,34.28
2023-05-01T01:56:50.360Z,34.27
2023-05-01T01:57:50.358Z,34.27
2023-05-01T01:58:50.354Z,34.28
2023-05-01T01:59:50.355Z,34.27
2023-05-01T02:00:50.349Z,34.27
2023-05-01T02:01:50.423Z,34.25
2023-05-01T02:02:50.399Z,34.25
2023-05-01T02:03:50.433Z,34.27
2023-05-01T02:04:50.358Z,34.20
2023-05-01T02:05:50.356Z,34.27
2023-05-01T02:06:50.472Z,34.27
2023-05-01T02:07:50.364Z,34.28
2023-05-01T02:08:50.369Z,34.25
2023-05-01T02:09:50.377Z,34.24
2023-05-01T02:10:50.349Z,34.25
2023-05-01T02:11:50.346Z,34.23
2023-05-01T02:12:50.354Z,34.25
2023-05-01T02:13:50.347Z,34.24
2023-05-01T02:14:50.373Z,34.29
2023-05-01T02:15:50.440Z,34.28
2023-05-01T02:16:50.352Z,34.23
2023-05-01T02:17:50.401Z,34.28
2023-05-01T02:18:50.400Z,34.24
2023-05-01T02:19:50.351Z,34.28
2023-05-01T02:20:50.365Z,34.25
2023-05-01T02:21:50.386Z,34.27
2023-05-01T02:22:50.356Z,34.25
2023-05-01T02:23:50.356Z,34.24
2023-05-01T02:24:50.366Z,34.23
2023-05-01T02:25:50.371Z,34.24
2023-05-01T02:26:50.361Z,34.25
2023-05-01T02:27:50.372Z,34.24
2023-05-01T02:28:50.372Z,34.22
2023-05-01T02:29:50.369Z,34.23
2023-05-01T02:30:50.387Z,34.21
2023-05-01T02:31:50.411Z,34.23
2023-05-01T02:32:50.445Z,34.27
2023-05-01T02:33:50.373Z,34.24
2023-05-01T02:34:50.418Z,34.25
2023-05-01T02:35:50.384Z,34.24
2023-05-01T02:36:50.387Z,34.21
2023-05-01T02:37:50.395Z,34.23
2023-05-01T02:38:50.389Z,34.25
2023-05-01T02:39:50.384Z,34.25
2023-05-01T02:40:50.385Z,34.20
2023-05-01T02:41:50.387Z,34.24
2023-05-01T02:42:50.387Z,34.17
2023-05-01T02:43:50.385Z,34.25
2023-05-01T02:44:50.382Z,34.19
2023-05-01T02:45:50.518Z,34.25
2023-05-01T02:46:50.411Z,34.25
2023-05-01T02:47:50.461Z,34.22
2023-05-01T02:48:50.379Z,34.24
2023-05-01T02:49:50.381Z,34.21
2023-05-01T02:50:50.412Z,34.17
2023-05-01T02:51:50.386Z,34.23
2023-05-01T02:52:50.387Z,34.24
2023-05-01T02:53:50.398Z,34.19
2023-05-01T02:54:50.401Z,34.20
2023-05-01T02:55:50.420Z,34.25
2023-05-01T02:56:50.418Z,34.20
2023-05-01T02:57:50.413Z,34.21
2023-05-01T02:58:50.415Z,34.22
2023-05-01T02:59:50.428Z,34.20
2023-05-01T03:00:50.457Z,34.25
2023-05-01T03:01:50.496Z,34.24
2023-05-01T03:02:50.474Z,34.20
2023-05-01T03:03:50.449Z,34.20
2023-05-01T03:04:50.449Z,34.17
2023-05-01T03:05:50.434Z,34.21
2023-05-01T03:06:50.519Z,34.24
2023-05-01T03:07:50.440Z,34.20
2023-05-01T03:08:50.435Z,34.24
2023-05-01T03:09:50.433Z,34.19
2023-05-01T03:10:50.456Z,34.19
2023-05-01T03:11:50.441Z,34.19
2023-05-01T03:12:50.444Z,34.21
2023-05-01T03:13:50.454Z,34.17
2023-05-01T03:14:50.454Z,34.20
2023-05-01T03:15:50.463Z,34.21
2023-05-01T03:16:50.483Z,34.14
2023-05-01T03:17:50.533Z,34.17
2023-05-01T03:18:50.482Z,34.19
2023-05-01T03:19:50.474Z,34.20
2023-05-01T03:20:50.482Z,34.14
2023-05-01T03:21:50.489Z,34.20
2023-05-01T03:22:50.511Z,34.16
2023-05-01T03:23:50.500Z,34.20
2023-05-01T03:24:50.494Z,34.17
2023-05-01T03:25:50.507Z,34.16
2023-05-01T03:26:50.501Z,34.18
2023-05-01T03:27:50.506Z,34.17
2023-05-01T03:28:50.513Z,34.19
2023-05-01T03:29:50.522Z,34.19
2023-05-01T03:30:50.520Z,34.12
2023-05-01T03:31:50.569Z,34.17
2023-05-01T03:32:50.545Z,34.20
2023-05-01T03:33:50.554Z,34.16
2023-05-01T03:34:50.598Z,34.18
2023-05-01T03:35:50.552Z,34.14
2023-05-01T03:36:50.568Z,34.13
2023-05-01T03:37:50.560Z,34.16
2023-05-01T03:38:50.615Z,34.19
2023-05-01T03:39:50.569Z,34.13
2023-05-01T03:40:50.566Z,34.17
2023-05-01T03:41:50.589Z,34.17
2023-05-01T03:42:50.576Z,34.14
2023-05-01T03:43:50.592Z,34.18
2023-05-01T03:44:50.589Z,34.17
2023-05-01T03:45:50.657Z,34.18
2023-05-01T03:46:50.605Z,34.12
2023-05-01T03:47:50.679Z,34.17
2023-05-01T03:48:50.602Z,34.20
2023-05-01T03:49:50.606Z,34.16
2023-05-01T03:50:50.610Z,34.16
2023-05-01T03:51:50.618Z,34.20
2023-05-01T03:52:50.624Z,34.17
2023-05-01T03:53:50.631Z,34.13
2023-05-01T03:54:50.655Z,34.18
2023-05-01T03:55:50.635Z,34.14
2023-05-01T03:56:50.653Z,34.14
2023-05-01T03:57:50.654Z,34.16
2023-05-01T03:58:50.656Z,34.13
2023-05-01T03:59:50.669Z,34.16
2023-05-01T04:00:50.664Z,34.14
2023-05-01T04:01:50.697Z,34.12
2023-05-01T04:02:50.885Z,34.11
2023-05-01T04:03:50.766Z,34.14
2023-05-01T04:04:50.670Z,34.16
2023-05-01T04:05:50.675Z,34.14
2023-05-01T04:06:50.760Z,34.14
2023-05-01T04:07:50.689Z,34.12
2023-05-01T04:08:50.683Z,34.16
2023-05-01T04:09:50.685Z,34.11
2023-05-01T04:10:50.712Z,34.14
2023-05-01T04:11:50.693Z,34.14
2023-05-01T04:12:50.696Z,34.13
2023-05-01T04:13:50.703Z,34.09
2023-05-01T04:14:50.716Z,34.16
2023-05-01T04:15:50.763Z,34.13
2023-05-01T04:16:50.721Z,34.13
2023-05-01T04:17:50.792Z,34.12
2023-05-01T04:18:50.739Z,34.14
2023-05-01T04:19:50.744Z,34.13
2023-05-01T04:20:50.746Z,34.13
2023-05-01T04:21:50.758Z,34.08
2023-05-01T04:22:50.772Z,34.12
2023-05-01T04:23:50.758Z,34.14
2023-05-01T04:24:50.768Z,34.12
2023-05-01T04:25:50.774Z,34.12
2023-05-01T04:26:50.815Z,34.12
2023-05-01T04:27:50.794Z,34.12
2023-05-01T04:28:50.816Z,34.17
2023-05-01T04:29:50.817Z,34.12
2023-05-01T04:30:50.817Z,34.13
2023-05-01T04:31:50.840Z,34.16
2023-05-01T04:32:50.866Z,34.10
2023-05-01T04:33:50.827Z,34.10
2023-05-01T04:34:50.819Z,34.13
2023-05-01T04:35:50.832Z,34.08
2023-05-01T04:36:50.828Z,34.12
2023-05-01T04:37:50.834Z,34.12
2023-05-01T04:38:50.839Z,34.12
2023-05-01T04:39:50.845Z,34.10
2023-05-01T04:40:50.850Z,34.08
2023-05-01T04:41:50.860Z,34.14
2023-05-01T04:42:50.886Z,34.07
2023-05-01T04:43:50.866Z,34.10
2023-05-01T04:44:50.872Z,34.05
2023-05-01T04:45:50.879Z,34.09
2023-05-01T04:46:50.937Z,34.07
2023-05-01T04:47:50.933Z,34.07
2023-05-01T04:48:50.911Z,34.10
2023-05-01T04:49:50.898Z,34.09
2023-05-01T04:50:50.904Z,34.07
2023-05-01T04:51:50.908Z,34.13
2023-05-01T04:52:50.912Z,34.07
2023-05-01T04:53:50.920Z,34.09
2023-05-01T04:54:50.928Z,34.09
2023-05-01T04:55:50.943Z,34.01
2023-05-01T04:56:50.930Z,34.08
2023-05-01T04:57:50.946Z,34.05
2023-05-01T04:58:50.962Z,34.05
2023-05-01T04:59:50.940Z,34.08
2023-05-01T05:00:50.954Z,34.11
2023-05-01T05:01:50.968Z,34.08
2023-05-01T05:02:51.081Z,34.01
2023-05-01T05:03:51.127Z,34.05
2023-05-01T05:04:51.013Z,34.07
2023-05-01T05:05:50.985Z,34.08
2023-05-01T05:06:51.020Z,34.08
2023-05-01T05:07:50.991Z,34.07
2023-05-01T05:08:50.995Z,34.05
2023-05-01T05:09:50.998Z,34.04
2023-05-01T05:10:51.005Z,34.12
2023-05-01T05:11:51.009Z,34.00
2023-05-01T05:12:51.017Z,34.03
2023-05-01T05:13:51.027Z,33.99
2023-05-01T05:14:51.047Z,33.91
2023-05-01T05:15:51.030Z,33.89
2023-05-01T05:16:51.063Z,33.87
2023-05-01T05:17:51.080Z,33.77
2023-05-01T05:18:51.069Z,33.69
2023-05-01T05:19:51.064Z,33.66
2023-05-01T05:20:51.075Z,33.57
2023-05-01T05:21:51.085Z,33.50
2023-05-01T05:22:51.095Z,33.50
2023-05-01T05:23:51.115Z,33.46
2023-05-01T05:24:51.121Z,33.42
2023-05-01T05:25:51.139Z,33.36
2023-05-01T05:26:51.150Z,33.37
2023-05-01T05:27:51.168Z,33.37
2023-05-01T05:28:51.201Z,33.29
2023-05-01T05:29:51.203Z,33.30
2023-05-01T05:30:51.242Z,33.32
2023-05-01T05:31:51.294Z,33.27
2023-05-01T05:32:51.281Z,33.36
2023-05-01T05:33:51.271Z,33.26
2023-05-01T05:34:51.298Z,33.27
2023-05-01T05:35:51.316Z,33.22
2023-05-01T05:36:51.334Z,33.29
2023-05-01T05:37:51.351Z,33.26
2023-05-01T05:38:51.371Z,33.27
2023-05-01T05:39:51.390Z,33.21
2023-05-01T05:40:51.449Z,33.17
2023-05-01T05:41:51.434Z,33.21
2023-05-01T05:42:51.459Z,33.21
2023-05-01T05:43:51.476Z,33.18
2023-05-01T05:44:51.492Z,33.21
2023-05-01T05:45:51.610Z,33.18
2023-05-01T05:46:51.561Z,33.16
2023-05-01T05:47:51.570Z,33.18
2023-05-01T05:48:51.572Z,33.16
2023-05-01T05:49:51.603Z,33.15
2023-05-01T05:50:51.606Z,33.10
2023-05-01T05:51:51.648Z,33.17
2023-05-01T05:52:51.678Z,33.10
2023-05-01T05:53:51.686Z,33.13
2023-05-01T05:54:51.706Z,33.17
2023-05-01T05:55:51.738Z,33.18
2023-05-01T05:56:51.755Z,33.14
2023-05-01T05:57:51.777Z,33.11
2023-05-01T05:58:51.802Z,33.10
2023-05-01T05:59:51.829Z,33.17
2023-05-01T06:00:51.853Z,33.15
2023-05-01T06:01:51.868Z,33.18
2023-05-01T06:02:52.033Z,33.13
2023-05-01T06:03:51.960Z,33.11
2023-05-01T06:04:51.961Z,33.14
2023-05-01T06:05:52.046Z,33.22
2023-05-01T06:06:52.057Z,33.15
2023-05-01T06:07:52.072Z,33.18
2023-05-01T06:08:52.048Z,33.22
2023-05-01T06:09:52.078Z,33.18
2023-05-01T06:10:52.131Z,33.18
2023-05-01T06:11:52.148Z,33.20
2023-05-01T06:12:59.457Z,33.24
2023-05-01T06:13:52.148Z,33.25
2023-05-01T06:14:52.136Z,33.24
2023-05-01T06:15:52.180Z,33.25
2023-05-01T06:16:52.109Z,33.25
2023-05-01T06:17:52.166Z,33.29
2023-05-01T06:18:52.093Z,33.27
2023-05-01T06:19:52.056Z,33.31
2023-05-01T06:20:52.052Z,33.29
2023-05-01T06:21:52.058Z,33.30
2023-05-01T06:22:52.004Z,33.32
2023-05-01T06:23:51.982Z,33.31
2023-05-01T06:24:51.969Z,33.32
2023-05-01T06:25:51.972Z,33.29
2023-05-01T06:26:51.944Z,33.31
2023-05-01T06:27:51.925Z,33.33
2023-05-01T06:28:51.912Z,33.38
2023-05-01T06:29:51.910Z,33.32
2023-05-01T06:30:51.886Z,33.33
2023-05-01T06:31:51.974Z,33.25
2023-05-01T06:32:52.801Z,33.22
2023-05-01T06:33:51.853Z,33.24
2023-05-01T06:34:51.868Z,33.26
2023-05-01T06:35:51.822Z,33.23
2023-05-01T06:36:51.815Z,33.23
2023-05-01T06:37:51.799Z,33.25
2023-05-01T06:38:51.785Z,33.23
2023-05-01T06:39:51.767Z,33.23
2023-05-01T06:40:51.752Z,33.29
2023-05-01T06:41:51.740Z,33.22
2023-05-01T06:42:51.724Z,33.24
2023-05-01T06:43:51.710Z,33.22
2023-05-01T06:44:51.713Z,33.26
2023-05-01T06:45:51.742Z,33.22
2023-05-01T06:46:51.816Z,33.23
2023-05-01T06:47:51.900Z,33.25
2023-05-01T06:48:51.829Z,33.27
2023-05-01T06:49:51.855Z,33.27
2023-05-01T06:50:51.914Z,33.29
2023-05-01T06:51:51.908Z,33.29
2023-05-01T06:52:51.957Z,33.35
2023-05-01T06:53:51.966Z,33.37
2023-05-01T06:54:51.994Z,33.32
2023-05-01T06:55:52.015Z,33.30
2023-05-01T06:56:52.043Z,33.33
2023-05-01T06:57:52.065Z,33.35
2023-05-01T06:58:52.106Z,33.38
2023-05-01T06:59:52.128Z,33.35
2023-05-01T07:00:52.242Z,33.35
2023-05-01T07:01:52.196Z,33.36
2023-05-01T07:02:52.444Z,33.35
2023-05-01T07:03:52.243Z,33.32
2023-05-01T07:04:52.264Z,33.39
2023-05-01T07:05:52.294Z,33.35
2023-05-01T07:06:52.461Z,33.29
2023-05-01T07:08:01.382Z,33.29
2023-05-01T07:08:52.337Z,33.32
2023-05-01T07:09:52.319Z,33.29
2023-05-01T07:10:52.312Z,33.25
2023-05-01T07:11:52.301Z,33.26
2023-05-01T07:12:52.286Z,33.29
2023-05-01T07:13:52.277Z,33.27
2023-05-01T07:14:52.272Z,33.26
2023-05-01T07:15:54.450Z,33.24
2023-05-01T07:16:52.342Z,33.29
2023-05-01T07:17:52.265Z,33.24
2023-05-01T07:18:52.226Z,33.25
2023-05-01T07:19:52.221Z,33.22
2023-05-01T07:20:52.207Z,33.19
2023-05-01T07:21:52.200Z,33.21
2023-05-01T07:22:52.217Z,33.18
2023-05-01T07:23:52.189Z,33.19
2023-05-01T07:24:52.164Z,33.22
2023-05-01T07:25:52.157Z,33.15
2023-05-01T07:26:52.153Z,33.15
2023-05-01T07:27:52.146Z,33.15
2023-05-01T07:28:52.126Z,33.11
2023-05-01T07:29:52.109Z,33.13
2023-05-01T07:30:52.102Z,33.18
2023-05-01T07:31:52.149Z,33.21
2023-05-01T07:32:52.097Z,33.17
2023-05-01T07:33:54.110Z,33.18
2023-05-01T07:34:52.049Z,33.18
2023-05-01T07:35:52.047Z,33.16
2023-05-01T07:36:52.029Z,33.17
2023-05-01T07:37:52.012Z,33.14
2023-05-01T07:38:52.024Z,33.16
2023-05-01T07:39:51.979Z,33.16
2023-05-01T07:40:51.965Z,33.17
2023-05-01T07:41:51.960Z,33.16
2023-05-01T07:42:54.438Z,33.21
2023-05-01T07:43:51.926Z,33.16
2023-05-01T07:44:51.905Z,33.09
2023-05-01T07:45:51.942Z,33.11
2023-05-01T07:46:51.878Z,33.15
2023-05-01T07:47:51.888Z,33.13
2023-05-01T07:48:51.849Z,33.10
2023-05-01T07:49:51.844Z,33.11
2023-05-01T07:50:51.822Z,33.07
2023-05-01T07:51:51.799Z,33.02
2023-05-01T07:52:51.785Z,33.08
2023-05-01T07:53:51.771Z,33.10
2023-05-01T07:54:51.790Z,33.02
2023-05-01T07:55:51.775Z,33.07
2023-05-01T07:56:51.716Z,32.97
2023-05-01T07:57:51.699Z,32.94
2023-05-01T07:58:51.684Z,32.91
2023-05-01T07:59:51.681Z,32.90
2023-05-01T08:00:51.672Z,32.89
2023-05-01T08:01:51.658Z,32.85
2023-05-01T08:02:51.811Z,32.80
2023-05-01T08:03:51.754Z,32.79
2023-05-01T08:04:51.784Z,32.83
2023-05-01T08:05:51.594Z,32.80
2023-05-01T08:06:51.716Z,32.78
2023-05-01T08:07:51.574Z,32.75
2023-05-01T08:08:51.541Z,32.76
2023-05-01T08:09:51.529Z,32.69
2023-05-01T08:10:51.541Z,32.69
2023-05-01T08:11:51.492Z,32.69
2023-05-01T08:12:51.487Z,32.68
2023-05-01T08:13:51.466Z,32.62
2023-05-01T08:14:51.456Z,32.67
2023-05-01T08:15:51.497Z,32.65
2023-05-01T08:16:51.422Z,32.62
2023-05-01T08:17:51.473Z,32.68
2023-05-01T08:18:51.398Z,32.58
2023-05-01T08:19:51.375Z,32.64
2023-05-01T08:20:51.357Z,32.65
2023-05-01T08:21:51.339Z,32.59
2023-05-01T08:22:51.362Z,32.71
2023-05-01T08:23:51.329Z,32.65
2023-05-01T08:24:51.311Z,32.67
2023-05-01T08:25:51.290Z,32.70
2023-05-01T08:26:51.406Z,32.68
2023-05-01T08:27:51.273Z,32.65
2023-05-01T08:28:51.255Z,32.70
2023-05-01T08:29:51.240Z,32.66
2023-05-01T08:30:51.218Z,32.64
2023-05-01T08:31:51.281Z,32.66
2023-05-01T08:32:51.282Z,32.59
2023-05-01T08:33:51.164Z,32.59
2023-05-01T08:34:51.154Z,32.48
2023-05-01T08:35:51.136Z,32.45
2023-05-01T08:36:51.112Z,32.42
2023-05-01T08:37:51.083Z,32.42
2023-05-01T08:38:51.056Z,32.34
2023-05-01T08:39:51.029Z,32.38
2023-05-01T08:40:51.026Z,32.38
2023-05-01T08:41:51.020Z,32.40
2023-05-01T08:42:51.043Z,32.34
2023-05-01T08:43:51.021Z,32.35
2023-05-01T08:44:51.016Z,32.27
2023-05-01T08:45:51.008Z,32.33
2023-05-01T08:46:51.035Z,32.32
2023-05-01T08:47:51.086Z,32.30
2023-05-01T08:48:50.992Z,32.22
2023-05-01T08:49:50.991Z,32.24
2023-05-01T08:50:50.985Z,32.25
2023-05-01T08:51:50.985Z,32.16
2023-05-01T08:52:50.971Z,32.14
2023-05-01T08:53:51.030Z,32.16
2023-05-01T08:54:50.969Z,32.14
2023-05-01T08:55:50.965Z,32.08
2023-05-01T08:56:50.966Z,32.19
2023-05-01T08:57:50.953Z,32.19
2023-05-01T08:58:50.971Z,32.15
2023-05-01T08:59:50.945Z,32.15
2023-05-01T09:00:50.944Z,32.20
2023-05-01T09:01:50.979Z,32.20
2023-05-01T09:02:50.999Z,32.18
2023-05-01T09:03:51.012Z,32.14
2023-05-01T09:04:50.920Z,32.10
2023-05-01T09:05:50.919Z,32.08
2023-05-01T09:06:51.024Z,32.07
2023-05-01T09:07:50.902Z,32.08
2023-05-01T09:08:50.891Z,32.08
2023-05-01T09:09:50.885Z,32.10
2023-05-01T09:10:50.877Z,32.05
2023-05-01T09:11:50.871Z,32.10
2023-05-01T09:12:50.857Z,32.10
2023-05-01T09:13:50.856Z,32.12
2023-05-01T09:14:50.867Z,32.15
2023-05-01T09:15:50.982Z,32.12
2023-05-01T09:16:50.910Z,32.08
2023-05-01T09:17:50.946Z,32.11
2023-05-01T09:18:50.814Z,32.10
2023-05-01T09:19:50.827Z,32.10
2023-05-01T09:20:50.802Z,32.11
2023-05-01T09:21:50.806Z,32.11
2023-05-01T09:22:50.839Z,32.05
2023-05-01T09:23:50.787Z,32.05
2023-05-01T09:24:50.762Z,32.05
2023-05-01T09:25:52.086Z,32.05
2023-05-01T09:26:50.829Z,32.05
2023-05-01T09:27:50.761Z,32.08
2023-05-01T09:28:50.729Z,32.11
2023-05-01T09:29:50.813Z,32.10
2023-05-01T09:30:50.863Z,32.15
2023-05-01T09:31:50.741Z,32.17
2023-05-01T09:32:50.693Z,32.17
2023-05-01T09:33:50.660Z,32.16
2023-05-01T09:34:50.662Z,32.14
2023-05-01T09:35:50.731Z,32.08
2023-05-01T09:36:50.631Z,32.04
2023-05-01T09:37:50.637Z,32.07
2023-05-01T09:38:50.608Z,32.01
2023-05-01T09:39:50.597Z,31.97
2023-05-01T09:40:50.594Z,31.96
2023-05-01T09:41:50.623Z,32.02
2023-05-01T09:42:50.589Z,31.97
2023-05-01T09:43:50.558Z,31.94
2023-05-01T09:44:50.544Z,31.95
2023-05-01T09:45:50.547Z,31.97
2023-05-01T09:46:50.552Z,32.02
2023-05-01T09:47:50.644Z,32.00
2023-05-01T09:48:50.511Z,31.97
2023-05-01T09:49:50.498Z,31.99
2023-05-01T09:50:50.498Z,31.96
2023-05-01T09:51:50.492Z,31.97
2023-05-01T09:52:50.476Z,31.99
2023-05-01T09:53:50.519Z,32.00
2023-05-01T09:54:50.458Z,32.06
2023-05-01T09:55:50.453Z,32.03
2023-05-01T09:56:50.436Z,32.08
2023-05-01T09:57:50.444Z,32.07
2023-05-01T09:58:50.445Z,32.10
2023-05-01T09:59:50.409Z,32.04
2023-05-01T10:00:50.417Z,32.08
2023-05-01T10:01:50.863Z,32.11
2023-05-01T10:02:50.866Z,32.14
2023-05-01T10:03:50.419Z,32.14
2023-05-01T10:04:50.349Z,32.14
2023-05-01T10:05:50.358Z,32.15
2023-05-01T10:06:50.370Z,32.18
2023-05-01T10:07:50.310Z,32.14
2023-05-01T10:08:50.298Z,32.16
2023-05-01T10:09:50.288Z,32.17
2023-05-01T10:10:50.271Z,32.18
2023-05-01T10:11:50.300Z,32.16
2023-05-01T10:12:50.268Z,32.21
2023-05-01T10:13:50.243Z,32.19
2023-05-01T10:14:50.238Z,32.29
2023-05-01T10:15:50.226Z,32.28
2023-05-01T10:16:50.229Z,32.29
2023-05-01T10:17:50.228Z,32.28
2023-05-01T10:18:50.244Z,32.35
2023-05-01T10:19:50.192Z,32.30
2023-05-01T10:20:50.192Z,32.36
2023-05-01T10:21:50.168Z,32.35
2023-05-01T10:22:50.171Z,32.36
2023-05-01T10:23:50.190Z,32.40
2023-05-01T10:24:50.245Z,32.39
2023-05-01T10:25:50.144Z,32.34
2023-05-01T10:26:50.132Z,32.42
2023-05-01T10:27:50.128Z,32.42
2023-05-01T10:28:50.179Z,32.43
2023-05-01T10:29:50.127Z,32.47
2023-05-01T10:30:50.173Z,32.48
2023-05-01T10:31:50.094Z,32.56
2023-05-01T10:32:50.136Z,32.57
2023-05-01T10:33:50.083Z,32.61
2023-05-01T10:34:50.077Z,32.69
2023-05-01T10:35:50.051Z,32.81
2023-05-01T10:36:50.040Z,32.78
2023-05-01T10:37:50.036Z,32.90
2023-05-01T10:38:50.035Z,33.07
2023-05-01T10:39:50.025Z,33.12
2023-05-01T10:40:50.010Z,33.18
2023-05-01T10:41:49.995Z,33.31
2023-05-01T10:42:50.012Z,33.37
2023-05-01T10:43:49.984Z,33.37
2023-05-01T10:44:49.997Z,33.44
2023-05-01T10:45:50.063Z,33.49
2023-05-01T10:46:50.094Z,33.52
2023-05-01T10:47:49.984Z,33.58
2023-05-01T10:48:50.612Z,33.69
2023-05-01T10:49:49.944Z,33.86
2023-05-01T10:50:49.959Z,33.89
2023-05-01T10:51:49.930Z,33.89
2023-05-01T10:52:49.926Z,33.90
2023-05-01T10:53:49.926Z,33.89
2023-05-01T10:54:49.912Z,34.05
2023-05-01T10:55:49.912Z,34.10
2023-05-01T10:56:49.910Z,34.17
2023-05-01T10:57:49.909Z,34.17
2023-05-01T10:58:49.909Z,34.24
2023-05-01T10:59:49.925Z,34.16
2023-05-01T11:00:49.896Z,34.24
2023-05-01T11:01:49.915Z,34.33
2023-05-01T11:02:49.978Z,34.42
2023-05-01T11:03:49.874Z,34.40
2023-05-01T11:04:49.923Z,34.44
2023-05-01T11:05:49.916Z,34.41
2023-05-01T11:06:49.902Z,34.36
2023-05-01T11:07:49.854Z,34.46
2023-05-01T11:08:49.849Z,34.53
2023-05-01T11:09:49.852Z,34.53
2023-05-01T11:10:49.845Z,34.62
2023-05-01T11:11:49.827Z,34.61
2023-05-01T11:12:49.826Z,34.64
2023-05-01T11:13:49.815Z,34.55
2023-05-01T11:14:49.816Z,34.57
2023-05-01T11:15:49.888Z,34.55
2023-05-01T11:16:49.878Z,34.64
2023-05-01T11:17:49.920Z,34.58
2023-05-01T11:18:49.798Z,34.66
2023-05-01T11:19:49.796Z,34.65
2023-05-01T11:20:49.779Z,34.65
2023-05-01T11:21:49.780Z,34.70
2023-05-01T11:22:49.794Z,34.72
2023-05-01T11:23:49.759Z,34.65
2023-05-01T11:24:49.751Z,34.69
2023-05-01T11:25:49.737Z,34.58
2023-05-01T11:26:49.725Z,34.66
2023-05-01T11:27:49.726Z,34.79
2023-05-01T11:28:49.709Z,34.76
2023-05-01T11:29:49.737Z,34.79
2023-05-01T11:30:49.695Z,34.83
2023-05-01T11:31:49.726Z,34.82
2023-05-01T11:32:49.733Z,34.84
2023-05-01T11:33:49.678Z,34.89
2023-05-01T11:34:49.671Z,34.96
2023-05-01T11:35:49.663Z,34.92
2023-05-01T11:36:49.678Z,34.90
2023-05-01T11:37:49.661Z,34.97
2023-05-01T11:38:49.679Z,34.91
2023-05-01T11:39:49.649Z,34.83
2023-05-01T11:40:49.648Z,34.84
2023-05-01T11:41:49.658Z,34.90
2023-05-01T11:42:49.638Z,34.87
2023-05-01T11:43:49.649Z,34.89
2023-05-01T11:44:49.642Z,34.87
2023-05-01T11:45:49.647Z,34.98
2023-05-01T11:46:49.622Z,34.95
2023-05-01T11:47:49.706Z,34.83
2023-05-01T11:48:49.603Z,34.94
2023-05-01T11:49:49.603Z,34.91
2023-05-01T11:50:49.592Z,34.83
2023-05-01T11:51:49.588Z,35.06
2023-05-01T11:52:49.677Z,35.00
2023-05-01T11:53:49.580Z,35.02
2023-05-01T11:54:50.177Z,34.99
2023-05-01T11:55:49.579Z,35.00
2023-05-01T11:56:49.567Z,34.90
2023-05-01T11:57:49.612Z,34.97
2023-05-01T11:58:49.577Z,35.07
2023-05-01T11:59:49.557Z,34.95
2023-05-01T12:00:49.550Z,34.93
2023-05-01T12:01:49.595Z,34.86
2023-05-01T12:02:49.730Z,34.91
2023-05-01T12:03:49.629Z,34.92
2023-05-01T12:04:49.647Z,34.86
2023-05-01T12:05:49.535Z,35.00
2023-05-01T12:06:49.747Z,35.00
2023-05-01T12:07:49.524Z,35.00
2023-05-01T12:08:49.525Z,35.04
2023-05-01T12:09:49.520Z,35.07
2023-05-01T12:10:49.543Z,35.02
2023-05-01T12:11:51.836Z,35.12
2023-05-01T12:12:49.504Z,35.08
2023-05-01T12:13:49.476Z,35.07
2023-05-01T12:14:49.459Z,35.13
2023-05-01T12:15:49.454Z,35.18
2023-05-01T12:16:49.619Z,35.24
2023-05-01T12:17:49.533Z,35.33
2023-05-01T12:18:49.394Z,35.31
2023-05-01T12:19:49.372Z,35.22
2023-05-01T12:20:49.374Z,35.27
2023-05-01T12:21:49.349Z,35.40
2023-05-01T12:22:49.370Z,35.31
2023-05-01T12:23:49.306Z,35.44
2023-05-01T12:24:49.287Z,35.43
2023-05-01T12:25:49.270Z,35.71
2023-05-01T12:26:49.276Z,35.92
2023-05-01T12:27:49.237Z,35.82
2023-05-01T12:28:49.214Z,35.87
2023-05-01T12:29:49.215Z,36.04
2023-05-01T12:30:49.274Z,36.01
2023-05-01T12:31:49.282Z,35.95
2023-05-01T12:32:49.203Z,36.09
2023-05-01T12:33:49.108Z,36.19
2023-05-01T12:34:49.092Z,36.16
2023-05-01T12:35:49.065Z,36.21
2023-05-01T12:36:49.049Z,36.20
2023-05-01T12:37:49.061Z,36.66
2023-05-01T12:38:49.020Z,36.94
2023-05-01T12:39:49.001Z,37.11
2023-05-01T12:40:48.982Z,36.95
2023-05-01T12:41:48.977Z,36.96
2023-05-01T12:42:49.094Z,36.73
2023-05-01T12:43:48.932Z,36.78
2023-05-01T12:44:48.904Z,36.76
2023-05-01T12:45:48.887Z,37.08
2023-05-01T12:46:48.884Z,37.23
2023-05-01T12:47:48.891Z,37.25
2023-05-01T12:48:48.799Z,37.25
2023-05-01T12:49:48.773Z,37.42
2023-05-01T12:50:49.893Z,37.42
2023-05-01T12:51:48.740Z,37.36
2023-05-01T12:52:48.754Z,37.53